Time;durP1;ratioP1;P1;durP2;ratioP2;P2;SDS_P1;SDS_P2;PMS_P1;PMS_P2;Temp;Humidity;BMP_temperature;BMP_pressure;BME280_temperature;BME280_humidity;BME280_pressure;Samples;Min_cycle;Max_cycle;Signal;HPM_P1;HPM_P2
2021/12/15 00:00:40;;;;;;;109.18;49.17;;;;;;;;;;5129397;27;20087;-71
2021/12/15 00:03:07;;;;;;;105.95;50.70;;;;;;;;;;5132345;27;20022;-71
2021/12/15 00:05:33;;;;;;;113.72;52.83;;;;;;;;;;5127482;27;20031;-71
2021/12/15 00:08:00;;;;;;;121.75;53.70;;;;;;;;;;5129411;27;20022;-71
2021/12/15 00:10:27;;;;;;;125.72;49.70;;;;;;;;;;5128773;27;20385;-72
2021/12/15 00:12:54;;;;;;;135.30;49.25;;;;;;;;;;5112360;28;20039;-72
2021/12/15 00:15:22;;;;;;;150.90;51.38;;;;;;;;;;5139770;27;20035;-73
2021/12/15 00:17:50;;;;;;;134.02;46.67;;;;;;;;;;5134858;27;20492;-71
2021/12/15 00:20:17;;;;;;;130.68;46.65;;;;;;;;;;5134116;27;20038;-72
2021/12/15 00:22:44;;;;;;;101.00;42.22;;;;;;;;;;5134739;27;20050;-72
2021/12/15 00:25:11;;;;;;;111.10;44.90;;;;;;;;;;5134355;27;20457;-72
2021/12/15 00:27:38;;;;;;;196.63;54.67;;;;;;;;;;5136534;27;20031;-72
2021/12/15 00:30:07;;;;;;;100.57;44.63;;;;;;;;;;5134257;27;20512;-70
2021/12/15 00:32:34;;;;;;;117.72;49.33;;;;;;;;;;5133942;27;20519;-72
2021/12/15 00:35:01;;;;;;;122.35;52.10;;;;;;;;;;5133734;27;20585;-71
2021/12/15 00:37:27;;;;;;;101.18;45.63;;;;;;;;;;5133525;27;20029;-73
2021/12/15 00:39:53;;;;;;;149.13;55.17;;;;;;;;;;5133954;27;20322;-73
2021/12/15 00:42:20;;;;;;;178.23;58.47;;;;;;;;;;5131283;27;20462;-72
2021/12/15 00:44:46;;;;;;;103.93;45.17;;;;;;;;;;5133401;27;20031;-71
2021/12/15 00:47:13;;;;;;;169.45;55.22;;;;;;;;;;5133363;28;20031;-72
2021/12/15 00:49:40;;;;;;;125.40;50.40;;;;;;;;;;5133504;28;20514;-71
2021/12/15 00:52:06;;;;;;;101.53;44.15;;;;;;;;;;5131535;28;20394;-71
2021/12/15 00:54:33;;;;;;;103.45;43.97;;;;;;;;;;5131733;28;20059;-72
2021/12/15 00:57:00;;;;;;;151.35;52.83;;;;;;;;;;5129011;28;20027;-72
2021/12/15 00:59:26;;;;;;;112.97;41.10;;;;;;;;;;5132238;28;20027;-71
2021/12/15 01:01:53;;;;;;;118.47;46.28;;;;;;;;;;5131331;28;20030;-72
2021/12/15 01:04:20;;;;;;;117.65;42.88;;;;;;;;;;5131240;28;20061;-73
2021/12/15 01:06:49;;;;;;;113.72;46.20;;;;;;;;;;5131905;28;20027;-73
2021/12/15 01:09:20;;;;;;;118.25;47.33;;;;;;;;;;5136256;27;20488;-71
2021/12/15 01:19:53;;;;;;;155.38;54.72;;;;;;;;;;5134687;27;20061;-72
2021/12/15 01:22:30;;;;;;;138.30;53.00;;;;;;;;;;5137265;27;20404;-72
2021/12/15 01:25:01;;;;;;;123.70;50.45;;;;;;;;;;5133527;27;20113;-73
2021/12/15 01:27:28;;;;;;;125.65;50.20;;;;;;;;;;5135890;27;20019;-71
2021/12/15 01:29:54;;;;;;;151.25;55.63;;;;;;;;;;5139280;27;20023;-72
2021/12/15 01:32:21;;;;;;;110.70;48.47;;;;;;;;;;5136331;27;20035;-72
2021/12/15 01:34:47;;;;;;;109.65;45.97;;;;;;;;;;5136845;27;20074;-73
2021/12/15 01:37:14;;;;;;;130.93;53.85;;;;;;;;;;5136152;27;20380;-72
2021/12/15 01:39:40;;;;;;;143.63;49.85;;;;;;;;;;5135609;27;20477;-73
2021/12/15 01:42:07;;;;;;;170.82;57.00;;;;;;;;;;5136794;27;20058;-72
2021/12/15 01:47:18;;;;;;;137.75;52.67;;;;;;;;;;5131415;27;21357;-72
2021/12/15 01:49:47;;;;;;;110.50;46.13;;;;;;;;;;5131466;27;20019;-71
2021/12/15 01:52:22;;;;;;;129.25;49.88;;;;;;;;;;5135985;27;20027;-72
2021/12/15 01:54:51;;;;;;;144.82;50.78;;;;;;;;;;5135002;27;20073;-72
2021/12/15 01:57:19;;;;;;;139.40;50.55;;;;;;;;;;5134540;27;20023;-71
2021/12/15 01:59:46;;;;;;;122.00;44.10;;;;;;;;;;5134839;27;20027;-71
2021/12/15 02:02:13;;;;;;;165.27;55.28;;;;;;;;;;5136255;27;20502;-73
2021/12/15 02:04:39;;;;;;;216.57;61.03;;;;;;;;;;5133021;27;20496;-72
2021/12/15 02:07:08;;;;;;;110.93;47.17;;;;;;;;;;5133175;27;20031;-73
2021/12/15 02:12:07;;;;;;;163.43;59.03;;;;;;;;;;5134891;27;20050;-72
2021/12/15 02:14:34;;;;;;;204.88;60.92;;;;;;;;;;5133872;27;20068;-73
2021/12/15 02:17:01;;;;;;;162.43;58.15;;;;;;;;;;5134482;27;20027;-74
2021/12/15 02:19:27;;;;;;;133.65;52.80;;;;;;;;;;5133681;27;20031;-71
2021/12/15 02:21:54;;;;;;;128.13;52.50;;;;;;;;;;5131395;27;20039;-72
2021/12/15 02:24:21;;;;;;;139.73;56.25;;;;;;;;;;5134736;27;20034;-72
2021/12/15 02:26:51;;;;;;;143.48;55.83;;;;;;;;;;5134604;27;20054;-72
2021/12/15 02:29:20;;;;;;;158.25;57.13;;;;;;;;;;5133228;27;20488;-73
2021/12/15 02:32:08;;;;;;;133.27;49.95;;;;;;;;;;5125004;27;20027;-72
2021/12/15 02:37:21;;;;;;;140.35;51.30;;;;;;;;;;5133161;27;20035;-73
2021/12/15 02:39:55;;;;;;;171.20;56.75;;;;;;;;;;5133102;27;20043;-72
2021/12/15 02:42:22;;;;;;;126.30;46.40;;;;;;;;;;5132124;27;20410;-72
2021/12/15 02:44:49;;;;;;;149.30;51.47;;;;;;;;;;5130542;27;20031;-72
2021/12/15 02:47:17;;;;;;;108.03;42.53;;;;;;;;;;5111826;27;20491;-72
2021/12/15 02:49:44;;;;;;;164.98;51.15;;;;;;;;;;5131169;27;20023;-74
2021/12/15 02:52:11;;;;;;;116.63;42.97;;;;;;;;;;5129868;27;20039;-74
2021/12/15 02:54:37;;;;;;;175.93;52.53;;;;;;;;;;5130262;27;20031;-73
2021/12/15 02:57:12;;;;;;;183.25;54.15;;;;;;;;;;5129432;27;20045;-76
2021/12/15 03:00:01;;;;;;;124.35;45.50;;;;;;;;;;5132651;27;20023;-73
2021/12/15 03:15:40;;;;;;;156.63;56.80;;;;;;;;;;5132339;27;20065;-72
2021/12/15 03:18:09;;;;;;;172.75;61.53;;;;;;;;;;5128095;27;20481;-72
2021/12/15 03:20:41;;;;;;;236.25;68.28;;;;;;;;;;5132608;27;20043;-73
2021/12/15 03:23:13;;;;;;;156.32;57.67;;;;;;;;;;5128418;27;20055;-75
2021/12/15 03:25:40;;;;;;;186.63;62.45;;;;;;;;;;5128508;27;20147;-74
2021/12/15 03:34:37;;;;;;;221.27;69.78;;;;;;;;;;5133197;27;20103;-72
2021/12/15 03:36:51;;;;;;;167.40;57.38;;;;;;;;;;5113430;27;20046;-73
2021/12/15 03:39:21;;;;;;;170.27;55.72;;;;;;;;;;5126882;27;20027;-72
2021/12/15 03:44:15;;;;;;;157.52;53.85;;;;;;;;;;5100943;28;20051;-73
2021/12/15 03:46:42;;;;;;;185.43;57.97;;;;;;;;;;5098228;28;20100;-73
2021/12/15 03:49:08;;;;;;;157.20;52.88;;;;;;;;;;5098243;28;20089;-72
2021/12/15 03:51:41;;;;;;;197.18;62.17;;;;;;;;;;5097592;28;20031;-74
2021/12/15 03:54:10;;;;;;;138.07;52.67;;;;;;;;;;5100992;28;20129;-73
2021/12/15 03:56:40;;;;;;;166.77;60.10;;;;;;;;;;5098320;28;20080;-73
2021/12/15 03:59:07;;;;;;;172.75;58.15;;;;;;;;;;5102240;28;20032;-72
2021/12/15 04:01:33;;;;;;;144.43;55.95;;;;;;;;;;5101602;28;20099;-72
2021/12/15 04:04:01;;;;;;;179.38;62.42;;;;;;;;;;5095299;28;20036;-72
2021/12/15 04:06:34;;;;;;;143.13;56.58;;;;;;;;;;5097148;28;20024;-73
2021/12/15 04:09:01;;;;;;;151.50;56.55;;;;;;;;;;5099818;28;20031;-72
2021/12/15 04:11:33;;;;;;;143.77;54.88;;;;;;;;;;5093517;28;20030;-73
2021/12/15 04:14:00;;;;;;;157.48;56.30;;;;;;;;;;5097603;28;20031;-74
2021/12/15 04:18:54;;;;;;;139.13;53.33;;;;;;;;;;5097067;28;20024;-73
2021/12/15 04:21:20;;;;;;;140.02;53.97;;;;;;;;;;5098211;28;20077;-74
2021/12/15 04:23:51;;;;;;;148.18;53.85;;;;;;;;;;5099973;28;20030;-73
2021/12/15 04:26:17;;;;;;;159.60;60.72;;;;;;;;;;5093661;28;20086;-72
2021/12/15 04:28:44;;;;;;;173.45;63.22;;;;;;;;;;5096918;28;20043;-73
2021/12/15 04:31:11;;;;;;;203.10;69.88;;;;;;;;;;5099408;28;20038;-72
2021/12/15 04:33:54;;;;;;;196.38;68.30;;;;;;;;;;5098741;28;20469;-73
2021/12/15 04:36:21;;;;;;;230.60;79.93;;;;;;;;;;5099749;28;20073;-74
2021/12/15 04:38:48;;;;;;;203.98;83.07;;;;;;;;;;5100213;28;20035;-74
2021/12/15 04:41:16;;;;;;;275.95;100.70;;;;;;;;;;5095737;28;20035;-73
2021/12/15 04:43:44;;;;;;;234.07;96.05;;;;;;;;;;5098351;28;20511;-73
2021/12/15 04:46:12;;;;;;;204.75;83.40;;;;;;;;;;5097954;28;20031;-73
2021/12/15 04:48:39;;;;;;;201.13;81.03;;;;;;;;;;5098894;28;20031;-74
2021/12/15 04:51:06;;;;;;;197.90;78.82;;;;;;;;;;5094780;28;20355;-73
2021/12/15 04:53:33;;;;;;;174.18;69.85;;;;;;;;;;5098579;28;20047;-72
2021/12/15 04:55:59;;;;;;;203.48;82.50;;;;;;;;;;5101790;28;20030;-72
2021/12/15 04:58:26;;;;;;;199.98;80.03;;;;;;;;;;5101378;28;20134;-75
2021/12/15 05:00:57;;;;;;;265.00;94.50;;;;;;;;;;5103287;28;20020;-73
2021/12/15 05:03:23;;;;;;;264.95;98.78;;;;;;;;;;5097626;28;20019;-72
2021/12/15 05:05:50;;;;;;;189.25;76.68;;;;;;;;;;5104064;28;20069;-72
2021/12/15 05:08:16;;;;;;;179.75;71.53;;;;;;;;;;5102389;28;20028;-72
2021/12/15 05:10:43;;;;;;;213.77;84.65;;;;;;;;;;5104035;28;20036;-72
2021/12/15 05:13:10;;;;;;;251.98;92.32;;;;;;;;;;5100455;28;20659;-72
2021/12/15 05:15:37;;;;;;;256.17;99.13;;;;;;;;;;5103083;28;20378;-72
2021/12/15 05:18:05;;;;;;;308.73;110.53;;;;;;;;;;5102684;28;20462;-72
2021/12/15 05:20:33;;;;;;;302.58;107.47;;;;;;;;;;5103073;28;20374;-74
2021/12/15 05:23:02;;;;;;;259.95;105.25;;;;;;;;;;5102295;28;20119;-74
2021/12/15 05:25:28;;;;;;;245.27;98.28;;;;;;;;;;5105332;28;20040;-72
2021/12/15 05:27:55;;;;;;;225.60;94.97;;;;;;;;;;5100846;28;20077;-74
2021/12/15 05:30:21;;;;;;;244.88;97.28;;;;;;;;;;5097271;28;20438;-73
2021/12/15 05:32:48;;;;;;;203.25;78.22;;;;;;;;;;5102163;28;20023;-72
2021/12/15 05:35:20;;;;;;;187.52;71.05;;;;;;;;;;5100973;28;20039;-73
2021/12/15 05:37:47;;;;;;;183.10;67.63;;;;;;;;;;5100487;28;20020;-72
2021/12/15 05:40:13;;;;;;;180.88;70.82;;;;;;;;;;5103128;28;20039;-73
2021/12/15 05:42:40;;;;;;;188.02;76.43;;;;;;;;;;5103487;28;20067;-72
2021/12/15 05:45:08;;;;;;;174.85;71.18;;;;;;;;;;5102823;28;20115;-74
2021/12/15 05:47:35;;;;;;;169.93;65.95;;;;;;;;;;5101379;28;20023;-72
2021/12/15 05:50:01;;;;;;;153.23;61.33;;;;;;;;;;5102785;28;20035;-73
2021/12/15 05:52:30;;;;;;;158.77;60.60;;;;;;;;;;5104223;28;20050;-70
2021/12/15 05:54:57;;;;;;;159.13;63.25;;;;;;;;;;5104608;28;20027;-71
2021/12/15 05:57:23;;;;;;;159.98;64.68;;;;;;;;;;5102328;28;21850;-70
2021/12/15 05:59:50;;;;;;;152.75;66.43;;;;;;;;;;5101568;28;20028;-70
2021/12/15 06:02:16;;;;;;;162.38;66.93;;;;;;;;;;5100301;27;20155;-71
2021/12/15 06:04:43;;;;;;;157.10;64.45;;;;;;;;;;5105857;28;20102;-69
2021/12/15 06:07:09;;;;;;;142.05;57.65;;;;;;;;;;5100435;28;20031;-71
2021/12/15 06:09:36;;;;;;;154.25;60.83;;;;;;;;;;5102720;28;20189;-71
2021/12/15 06:12:03;;;;;;;133.43;57.03;;;;;;;;;;5102206;27;20429;-69
2021/12/15 06:14:30;;;;;;;132.27;54.13;;;;;;;;;;5099962;28;20777;-71
2021/12/15 06:17:02;;;;;;;138.27;57.90;;;;;;;;;;5104652;28;20579;-70
2021/12/15 06:19:28;;;;;;;132.15;55.00;;;;;;;;;;5101951;28;20039;-71
2021/12/15 06:21:55;;;;;;;123.40;56.08;;;;;;;;;;5100142;28;20024;-70
2021/12/15 06:24:21;;;;;;;130.73;58.42;;;;;;;;;;5098162;28;20104;-71
2021/12/15 06:26:49;;;;;;;148.30;63.33;;;;;;;;;;5101960;28;20039;-71
2021/12/15 06:29:15;;;;;;;136.05;59.50;;;;;;;;;;5101759;28;20024;-70
2021/12/15 06:31:42;;;;;;;139.07;57.88;;;;;;;;;;5095965;28;20579;-71
2021/12/15 06:34:08;;;;;;;149.60;62.95;;;;;;;;;;5090938;28;20042;-71
2021/12/15 06:36:36;;;;;;;134.82;59.20;;;;;;;;;;5093196;28;20114;-71
2021/12/15 06:39:04;;;;;;;141.02;60.78;;;;;;;;;;5093292;28;20107;-70
2021/12/15 06:41:31;;;;;;;142.25;66.20;;;;;;;;;;5095337;28;20524;-71
2021/12/15 06:43:58;;;;;;;144.52;63.55;;;;;;;;;;5096862;28;20374;-71
2021/12/15 06:59:53;;;;;;;148.32;72.75;;;;;;;;;;5100505;28;20065;-70
2021/12/15 07:02:19;;;;;;;150.02;72.15;;;;;;;;;;5100756;28;20046;-71
2021/12/15 07:04:45;;;;;;;167.40;80.60;;;;;;;;;;5098295;28;20026;-70
2021/12/15 07:07:12;;;;;;;166.43;79.25;;;;;;;;;;5097781;28;20028;-69
2021/12/15 07:09:39;;;;;;;186.07;85.95;;;;;;;;;;5099901;28;20137;-71
2021/12/15 07:12:06;;;;;;;174.07;87.45;;;;;;;;;;5097430;28;20028;-71
2021/12/15 07:14:32;;;;;;;194.85;88.18;;;;;;;;;;5096692;28;20404;-71
2021/12/15 07:16:59;;;;;;;201.07;93.25;;;;;;;;;;5099280;28;20028;-70
2021/12/15 07:24:51;;;;;;;215.93;100.10;;;;;;;;;;5064325;28;20040;-70
2021/12/15 07:27:17;;;;;;;230.05;102.72;;;;;;;;;;5098741;28;20027;-70
2021/12/15 07:29:44;;;;;;;203.35;96.57;;;;;;;;;;5102252;28;20043;-69
2021/12/15 07:32:10;;;;;;;230.88;101.30;;;;;;;;;;5098767;28;20036;-71
2021/12/15 07:34:37;;;;;;;188.93;90.55;;;;;;;;;;5098137;28;20478;-70
2021/12/15 07:37:03;;;;;;;185.02;87.25;;;;;;;;;;5099476;28;20070;-70
2021/12/15 07:39:29;;;;;;;181.98;86.78;;;;;;;;;;5097987;28;20034;-71
2021/12/15 07:42:05;;;;;;;171.30;83.82;;;;;;;;;;5097900;28;20469;-71
2021/12/15 07:44:32;;;;;;;163.63;78.95;;;;;;;;;;5100323;28;20540;-71
2021/12/15 07:46:59;;;;;;;147.70;69.18;;;;;;;;;;5095961;28;20632;-72
2021/12/15 07:49:26;;;;;;;133.73;69.75;;;;;;;;;;5097496;28;20043;-70
2021/12/15 07:52:04;;;;;;;138.18;68.15;;;;;;;;;;5094302;28;20043;-72
2021/12/15 07:54:35;;;;;;;138.38;65.28;;;;;;;;;;5097481;28;20056;-72
2021/12/15 07:57:03;;;;;;;120.30;64.25;;;;;;;;;;5098122;28;20405;-71
2021/12/15 07:59:30;;;;;;;115.88;60.47;;;;;;;;;;5102846;28;20027;-71
2021/12/15 08:01:56;;;;;;;117.18;59.28;;;;;;;;;;5103223;28;20059;-70
2021/12/15 08:04:22;;;;;;;107.88;55.17;;;;;;;;;;5105088;27;20061;-70
2021/12/15 08:06:49;;;;;;;102.25;51.20;;;;;;;;;;5104994;27;20028;-70
2021/12/15 08:09:16;;;;;;;91.03;45.25;;;;;;;;;;5106616;27;20027;-69
2021/12/15 08:11:42;;;;;;;94.40;44.95;;;;;;;;;;5102691;28;20082;-71
2021/12/15 08:14:09;;;;;;;89.00;42.97;;;;;;;;;;5102126;28;20028;-70
2021/12/15 08:16:35;;;;;;;90.03;44.08;;;;;;;;;;5105672;28;20477;-71
2021/12/15 08:19:02;;;;;;;82.68;43.78;;;;;;;;;;5105379;28;20034;-71
2021/12/15 08:21:31;;;;;;;94.13;45.70;;;;;;;;;;5099231;28;20031;-72
2021/12/15 08:23:58;;;;;;;98.60;50.83;;;;;;;;;;5098581;28;20031;-71
2021/12/15 08:26:24;;;;;;;110.10;54.85;;;;;;;;;;5099144;28;20043;-71
2021/12/15 08:28:52;;;;;;;107.78;55.55;;;;;;;;;;5098338;28;20591;-71
2021/12/15 08:31:18;;;;;;;102.25;53.90;;;;;;;;;;5101571;28;20031;-73
2021/12/15 08:33:45;;;;;;;110.50;54.78;;;;;;;;;;5102607;28;20036;-73
2021/12/15 08:36:12;;;;;;;102.75;54.35;;;;;;;;;;5102078;28;20123;-73
2021/12/15 08:38:40;;;;;;;114.50;56.90;;;;;;;;;;5102575;28;20031;-71
2021/12/15 08:41:08;;;;;;;108.60;53.38;;;;;;;;;;5094203;28;20032;-71
2021/12/15 08:43:35;;;;;;;97.60;47.70;;;;;;;;;;5100615;28;20098;-71
2021/12/15 08:46:04;;;;;;;86.55;42.85;;;;;;;;;;5100382;28;20039;-71
2021/12/15 08:48:30;;;;;;;82.40;42.40;;;;;;;;;;5095634;28;20043;-71
2021/12/15 08:50:57;;;;;;;87.00;45.80;;;;;;;;;;5100846;28;20032;-70
2021/12/15 08:53:23;;;;;;;90.18;44.25;;;;;;;;;;5102274;28;20032;-70
2021/12/15 08:55:50;;;;;;;107.45;53.38;;;;;;;;;;5099667;28;20035;-71
2021/12/15 08:58:18;;;;;;;100.60;53.10;;;;;;;;;;5096785;28;20475;-69
2021/12/15 09:00:46;;;;;;;117.90;56.10;;;;;;;;;;5100362;28;20028;-71
2021/12/15 09:03:14;;;;;;;122.78;58.58;;;;;;;;;;5102097;28;20038;-72
2021/12/15 09:05:41;;;;;;;123.18;62.17;;;;;;;;;;5102549;28;20089;-73
2021/12/15 09:08:08;;;;;;;134.63;64.15;;;;;;;;;;5099016;28;20035;-71
2021/12/15 09:10:35;;;;;;;141.40;69.55;;;;;;;;;;5097552;28;20420;-70
2021/12/15 09:13:02;;;;;;;127.20;63.40;;;;;;;;;;5095257;28;20122;-70
2021/12/15 09:15:29;;;;;;;125.82;65.70;;;;;;;;;;5104375;28;20477;-70
2021/12/15 09:17:55;;;;;;;123.05;60.28;;;;;;;;;;5100296;28;20055;-71
2021/12/15 09:20:23;;;;;;;117.35;59.78;;;;;;;;;;5102000;28;20059;-71
2021/12/15 09:22:49;;;;;;;104.10;56.63;;;;;;;;;;5099053;28;20028;-72
2021/12/15 09:25:16;;;;;;;79.65;44.30;;;;;;;;;;5097346;28;20036;-72
2021/12/15 09:27:43;;;;;;;73.13;41.33;;;;;;;;;;5096468;28;20035;-73
2021/12/15 09:30:11;;;;;;;77.78;41.25;;;;;;;;;;5099425;28;20035;-72
2021/12/15 09:32:37;;;;;;;71.72;40.17;;;;;;;;;;5098204;28;20039;-73
2021/12/15 09:35:05;;;;;;;71.72;40.13;;;;;;;;;;5097708;28;20035;-72
2021/12/15 09:37:31;;;;;;;79.32;41.58;;;;;;;;;;5099444;28;20024;-73
2021/12/15 09:39:57;;;;;;;75.22;41.38;;;;;;;;;;5099379;27;20031;-72
2021/12/15 09:42:31;;;;;;;69.68;36.80;;;;;;;;;;5097515;27;20044;-73
2021/12/15 09:45:17;;;;;;;66.38;38.00;;;;;;;;;;5105104;28;20073;-73
2021/12/15 09:48:07;;;;;;;64.57;37.92;;;;;;;;;;5105633;28;20084;-73
2021/12/15 10:06:51;;;;;;;130.60;66.75;;;;;;;;;;5105707;28;20063;-73
2021/12/15 10:12:30;;;;;;;123.97;62.03;;;;;;;;;;5083450;27;20043;-72
2021/12/15 10:17:55;;;;;;;103.50;54.78;;;;;;;;;;5106809;28;20042;-72
2021/12/15 10:20:26;;;;;;;104.70;55.60;;;;;;;;;;5097894;28;20512;-71
2021/12/15 10:22:58;;;;;;;107.72;56.83;;;;;;;;;;5101434;28;20479;-71
2021/12/15 10:25:28;;;;;;;112.40;56.47;;;;;;;;;;5099722;28;20089;-71
2021/12/15 10:28:06;;;;;;;126.28;62.65;;;;;;;;;;5102851;28;20028;-72
2021/12/15 10:30:32;;;;;;;122.25;64.32;;;;;;;;;;5091496;28;20035;-71
2021/12/15 10:33:06;;;;;;;125.70;62.20;;;;;;;;;;5107104;28;20050;-76
2021/12/15 10:35:35;;;;;;;135.07;69.15;;;;;;;;;;5101878;27;20067;-72
2021/12/15 10:38:17;;;;;;;119.65;61.13;;;;;;;;;;5105677;28;20315;-74
2021/12/15 10:40:45;;;;;;;130.25;62.05;;;;;;;;;;5093548;27;20035;-73
2021/12/15 10:43:12;;;;;;;114.22;57.58;;;;;;;;;;5107935;27;20125;-73
2021/12/15 10:45:40;;;;;;;100.72;51.25;;;;;;;;;;5102401;28;20035;-72
2021/12/15 10:48:14;;;;;;;104.70;53.63;;;;;;;;;;5102674;28;20027;-71
2021/12/15 10:50:41;;;;;;;105.30;55.58;;;;;;;;;;5101988;28;20034;-73
2021/12/15 10:53:07;;;;;;;99.78;53.22;;;;;;;;;;5098922;28;20338;-72
2021/12/15 10:55:35;;;;;;;121.45;61.53;;;;;;;;;;5100667;28;20031;-71
2021/12/15 10:58:01;;;;;;;113.93;60.50;;;;;;;;;;5100260;28;20028;-72
2021/12/15 11:00:34;;;;;;;108.55;52.55;;;;;;;;;;5099530;28;20028;-71
2021/12/15 11:03:14;;;;;;;115.57;58.80;;;;;;;;;;5099383;28;20026;-71
2021/12/15 11:05:41;;;;;;;122.43;58.97;;;;;;;;;;5100377;28;20050;-71
2021/12/15 11:08:07;;;;;;;114.85;59.75;;;;;;;;;;5103614;28;20043;-70
2021/12/15 11:10:38;;;;;;;118.53;59.83;;;;;;;;;;5100099;28;20035;-71
2021/12/15 11:13:06;;;;;;;116.63;59.13;;;;;;;;;;5100567;27;20051;-70
2021/12/15 11:15:39;;;;;;;137.93;65.75;;;;;;;;;;5101716;28;20047;-71
2021/12/15 11:18:27;;;;;;;127.38;63.97;;;;;;;;;;5099211;28;20061;-72
2021/12/15 11:20:55;;;;;;;122.95;63.70;;;;;;;;;;5101898;28;20030;-73
2021/12/15 11:23:22;;;;;;;123.43;60.25;;;;;;;;;;5101179;28;20028;-72
2021/12/15 11:25:52;;;;;;;118.57;57.53;;;;;;;;;;5093795;28;20032;-71
2021/12/15 11:28:25;;;;;;;134.57;63.33;;;;;;;;;;5100128;28;20610;-72
2021/12/15 11:31:06;;;;;;;119.38;60.75;;;;;;;;;;5102148;28;20035;-72
2021/12/15 11:33:37;;;;;;;117.07;58.20;;;;;;;;;;5103085;28;20027;-71
2021/12/15 11:36:08;;;;;;;116.35;56.95;;;;;;;;;;5101014;28;20027;-70
2021/12/15 11:38:36;;;;;;;120.40;59.15;;;;;;;;;;5105181;28;20031;-69
2021/12/15 11:41:15;;;;;;;106.63;53.22;;;;;;;;;;5106258;28;20016;-71
2021/12/15 11:43:59;;;;;;;109.50;55.65;;;;;;;;;;5105756;28;20036;-71
2021/12/15 11:46:31;;;;;;;97.35;53.38;;;;;;;;;;5105979;28;20032;-70
2021/12/15 11:49:27;;;;;;;109.65;55.95;;;;;;;;;;5101200;28;20047;-72
2021/12/15 11:51:58;;;;;;;105.30;54.85;;;;;;;;;;5089149;28;20095;-73
2021/12/15 11:54:51;;;;;;;103.43;53.05;;;;;;;;;;5106137;28;20073;-71
2021/12/15 11:57:22;;;;;;;107.68;54.70;;;;;;;;;;5101768;28;20063;-71
2021/12/15 11:59:53;;;;;;;100.00;53.13;;;;;;;;;;5107063;28;20019;-71
2021/12/15 12:02:22;;;;;;;89.80;48.95;;;;;;;;;;5105692;28;20045;-70
2021/12/15 12:04:52;;;;;;;85.60;45.90;;;;;;;;;;5103333;28;20070;-70
2021/12/15 12:07:37;;;;;;;85.43;47.05;;;;;;;;;;5108011;28;20069;-71
2021/12/15 12:10:20;;;;;;;99.75;50.78;;;;;;;;;;5110273;28;20028;-70
2021/12/15 12:12:56;;;;;;;108.40;53.60;;;;;;;;;;5107004;28;20453;-69
2021/12/15 12:15:27;;;;;;;107.30;51.97;;;;;;;;;;5107321;28;20437;-70
2021/12/15 12:17:55;;;;;;;108.53;57.05;;;;;;;;;;5108541;28;20111;-70
2021/12/15 12:20:24;;;;;;;122.80;60.70;;;;;;;;;;5109829;28;20027;-70
2021/12/15 12:22:51;;;;;;;106.25;57.53;;;;;;;;;;5107744;28;20043;-71
2021/12/15 12:25:22;;;;;;;106.88;55.80;;;;;;;;;;5110721;28;20019;-72
2021/12/15 12:27:48;;;;;;;110.90;57.45;;;;;;;;;;5110900;28;20050;-71
2021/12/15 12:30:17;;;;;;;106.95;55.75;;;;;;;;;;5109393;28;20078;-72
2021/12/15 12:32:44;;;;;;;111.10;55.78;;;;;;;;;;5104715;28;20032;-70
2021/12/15 12:35:11;;;;;;;125.38;65.85;;;;;;;;;;5107403;28;20031;-73
2021/12/15 12:37:38;;;;;;;129.02;67.22;;;;;;;;;;5103947;28;20016;-70
2021/12/15 12:40:16;;;;;;;116.82;64.20;;;;;;;;;;5107678;28;20038;-70
2021/12/15 12:42:43;;;;;;;119.68;62.45;;;;;;;;;;5106468;28;20118;-72
2021/12/15 12:45:15;;;;;;;126.88;68.05;;;;;;;;;;5110182;28;20024;-71
2021/12/15 12:48:02;;;;;;;125.57;65.97;;;;;;;;;;5109707;28;20026;-71
2021/12/15 12:59:26;;;;;;;108.05;55.58;;;;;;;;;;5108562;28;20058;-72
2021/12/15 13:01:53;;;;;;;117.28;59.15;;;;;;;;;;5103849;28;20055;-70
2021/12/15 13:04:19;;;;;;;118.18;65.88;;;;;;;;;;5108753;28;20027;-70
2021/12/15 13:06:46;;;;;;;129.75;65.93;;;;;;;;;;5106332;28;20066;-70
2021/12/15 13:09:17;;;;;;;126.63;65.10;;;;;;;;;;5109095;28;20035;-71
2021/12/15 13:11:50;;;;;;;122.78;63.70;;;;;;;;;;5110358;28;20571;-71
2021/12/15 13:14:32;;;;;;;123.80;62.22;;;;;;;;;;5109201;28;20039;-71
2021/12/15 13:17:03;;;;;;;132.02;66.13;;;;;;;;;;5115577;28;20063;-70
2021/12/15 13:19:30;;;;;;;126.63;65.60;;;;;;;;;;5116787;28;20042;-71
2021/12/15 13:22:03;;;;;;;130.70;66.03;;;;;;;;;;5112196;28;20043;-71
2021/12/15 13:30:43;;;;;;;135.60;72.68;;;;;;;;;;5109330;28;20515;-72
2021/12/15 13:33:13;;;;;;;142.60;73.38;;;;;;;;;;5110895;28;20032;-69
2021/12/15 13:35:51;;;;;;;149.75;77.45;;;;;;;;;;5115823;28;20208;-71
2021/12/15 13:38:22;;;;;;;167.63;84.40;;;;;;;;;;5116644;28;20031;-70
2021/12/15 13:41:10;;;;;;;166.48;88.05;;;;;;;;;;5112530;28;20020;-71
2021/12/15 13:43:37;;;;;;;171.60;91.53;;;;;;;;;;5114954;28;20058;-70
2021/12/15 13:46:04;;;;;;;185.38;99.40;;;;;;;;;;5114505;28;20031;-70
2021/12/15 13:48:49;;;;;;;207.05;105.60;;;;;;;;;;5115707;28;20369;-71
2021/12/15 13:51:15;;;;;;;202.05;104.20;;;;;;;;;;5112577;28;20533;-70
2021/12/15 13:53:42;;;;;;;204.30;105.32;;;;;;;;;;5113709;28;20385;-70
2021/12/15 13:56:08;;;;;;;210.65;106.90;;;;;;;;;;5109021;28;20028;-71
2021/12/15 13:58:34;;;;;;;234.43;111.45;;;;;;;;;;5114656;28;20065;-70
2021/12/15 14:01:04;;;;;;;235.20;110.53;;;;;;;;;;5113056;28;20033;-70
2021/12/15 14:03:30;;;;;;;225.40;113.85;;;;;;;;;;5114333;28;20026;-71
2021/12/15 14:05:59;;;;;;;230.55;111.68;;;;;;;;;;5110554;28;20423;-71
2021/12/15 14:08:28;;;;;;;228.82;116.13;;;;;;;;;;5111301;28;20035;-71
2021/12/15 14:10:57;;;;;;;238.82;115.85;;;;;;;;;;5101457;28;20024;-70
2021/12/15 14:13:36;;;;;;;224.02;115.45;;;;;;;;;;5101494;28;20055;-71
2021/12/15 14:16:03;;;;;;;246.35;115.80;;;;;;;;;;5112712;28;20067;-71
2021/12/15 14:18:32;;;;;;;270.63;127.68;;;;;;;;;;5114299;28;20030;-69
2021/12/15 14:21:07;;;;;;;273.30;121.15;;;;;;;;;;5114859;28;20019;-69
2021/12/15 14:23:35;;;;;;;244.88;113.78;;;;;;;;;;5108858;28;20020;-70
2021/12/15 14:26:04;;;;;;;248.50;111.60;;;;;;;;;;5104164;28;20028;-69
2021/12/15 14:28:32;;;;;;;226.65;108.53;;;;;;;;;;5110122;28;20346;-71
2021/12/15 14:31:02;;;;;;;241.00;105.10;;;;;;;;;;5110076;28;20028;-70
2021/12/15 14:33:34;;;;;;;216.27;99.63;;;;;;;;;;5109500;28;20036;-70
2021/12/15 14:36:06;;;;;;;230.70;104.50;;;;;;;;;;5110923;28;20043;-69
2021/12/15 14:38:37;;;;;;;221.82;100.38;;;;;;;;;;5112229;28;20024;-70
2021/12/15 14:41:28;;;;;;;219.88;101.18;;;;;;;;;;5114949;28;20024;-69
2021/12/15 14:43:59;;;;;;;208.13;97.32;;;;;;;;;;5113188;28;20174;-72
2021/12/15 14:46:31;;;;;;;240.05;102.25;;;;;;;;;;5112157;28;20352;-70
2021/12/15 14:49:17;;;;;;;213.90;96.60;;;;;;;;;;5114093;28;20020;-69
2021/12/15 14:51:45;;;;;;;215.30;99.30;;;;;;;;;;5114450;28;20027;-71
2021/12/15 14:54:12;;;;;;;223.90;101.80;;;;;;;;;;5115068;28;20043;-69
2021/12/15 14:56:44;;;;;;;209.40;99.95;;;;;;;;;;5112580;28;20019;-68
2021/12/15 14:59:10;;;;;;;200.85;95.53;;;;;;;;;;5114956;28;20111;-70
2021/12/15 15:01:36;;;;;;;190.10;89.55;;;;;;;;;;5114849;28;20022;-70
2021/12/15 15:04:06;;;;;;;183.27;87.07;;;;;;;;;;5114742;28;20081;-71
2021/12/15 15:06:33;;;;;;;195.55;89.43;;;;;;;;;;5113372;28;20407;-69
2021/12/15 15:09:18;;;;;;;188.32;90.90;;;;;;;;;;5112804;28;20024;-70
2021/12/15 15:11:48;;;;;;;209.02;101.88;;;;;;;;;;5104518;28;20055;-69
2021/12/15 15:14:14;;;;;;;212.05;100.65;;;;;;;;;;5113793;28;20024;-70
2021/12/15 15:16:41;;;;;;;206.73;100.93;;;;;;;;;;5114413;28;20495;-71
2021/12/15 15:19:19;;;;;;;212.70;105.53;;;;;;;;;;5110352;28;20024;-69
2021/12/15 15:21:45;;;;;;;197.98;99.10;;;;;;;;;;5114199;28;20024;-70
2021/12/15 15:24:25;;;;;;;208.88;102.65;;;;;;;;;;5113899;28;20035;-68
2021/12/15 15:27:17;;;;;;;197.07;97.65;;;;;;;;;;5114180;28;20107;-70
2021/12/15 15:29:47;;;;;;;207.43;99.05;;;;;;;;;;5110841;28;20047;-71
2021/12/15 15:32:13;;;;;;;207.68;101.32;;;;;;;;;;5113213;28;20024;-71
2021/12/15 15:34:42;;;;;;;203.27;96.85;;;;;;;;;;5113350;28;20488;-70
2021/12/15 15:37:20;;;;;;;203.25;98.50;;;;;;;;;;5114545;28;20477;-69
2021/12/15 15:39:46;;;;;;;215.98;96.00;;;;;;;;;;5113944;28;20138;-69
2021/12/15 15:42:23;;;;;;;204.45;96.97;;;;;;;;;;5113496;28;20119;-70
2021/12/15 15:44:49;;;;;;;217.25;101.80;;;;;;;;;;5113651;28;20039;-70
2021/12/15 15:47:17;;;;;;;204.32;96.60;;;;;;;;;;5113273;28;20456;-70
2021/12/15 15:49:57;;;;;;;203.10;97.85;;;;;;;;;;5112785;28;20023;-70
2021/12/15 15:52:24;;;;;;;199.57;100.57;;;;;;;;;;5113465;28;20039;-69